sensor_id;sensor_type;location;lat;lon;timestamp;P1;durP1;ratioP1;P2;durP2;ratioP2
28802;SDS011;15949;55.656;37.422;2022-07-22T00:03:19;7.13;;;2.60;;
28802;SDS011;15949;55.656;37.422;2022-07-22T00:08:25;8.85;;;2.72;;
28802;SDS011;15949;55.656;37.422;2022-07-22T00:13:31;4.47;;;2.40;;
28802;SDS011;15949;55.656;37.422;2022-07-22T00:18:37;6.50;;;2.92;;
28802;SDS011;15949;55.656;37.422;2022-07-22T00:23:42;5.32;;;3.08;;
28802;SDS011;15949;55.656;37.422;2022-07-22T00:28:48;6.97;;;2.53;;
28802;SDS011;15949;55.656;37.422;2022-07-22T00:33:54;7.45;;;2.90;;
28802;SDS011;15949;55.656;37.422;2022-07-22T00:38:59;7.72;;;3.00;;
28802;SDS011;15949;55.656;37.422;2022-07-22T00:44:05;5.97;;;2.28;;
28802;SDS011;15949;55.656;37.422;2022-07-22T00:49:11;7.03;;;2.30;;
28802;SDS011;15949;55.656;37.422;2022-07-22T00:54:17;6.95;;;2.60;;
28802;SDS011;15949;55.656;37.422;2022-07-22T00:59:23;7.63;;;2.60;;
28802;SDS011;15949;55.656;37.422;2022-07-22T01:04:29;11.43;;;3.25;;
28802;SDS011;15949;55.656;37.422;2022-07-22T01:09:34;6.90;;;3.05;;
28802;SDS011;15949;55.656;37.422;2022-07-22T01:14:40;4.82;;;3.10;;
28802;SDS011;15949;55.656;37.422;2022-07-22T01:19:46;5.55;;;3.33;;
28802;SDS011;15949;55.656;37.422;2022-07-22T01:24:51;5.63;;;3.00;;
28802;SDS011;15949;55.656;37.422;2022-07-22T01:29:57;4.45;;;2.30;;
28802;SDS011;15949;55.656;37.422;2022-07-22T01:35:03;6.57;;;2.72;;
28802;SDS011;15949;55.656;37.422;2022-07-22T01:40:09;5.53;;;2.78;;
28802;SDS011;15949;55.656;37.422;2022-07-22T01:45:15;3.33;;;2.80;;
28802;SDS011;15949;55.656;37.422;2022-07-22T01:50:21;11.13;;;3.00;;
28802;SDS011;15949;55.656;37.422;2022-07-22T01:55:26;6.25;;;2.85;;
28802;SDS011;15949;55.656;37.422;2022-07-22T02:00:32;5.25;;;2.47;;
28802;SDS011;15949;55.656;37.422;2022-07-22T02:05:39;7.70;;;2.95;;
28802;SDS011;15949;55.656;37.422;2022-07-22T02:10:45;8.88;;;3.05;;
28802;SDS011;15949;55.656;37.422;2022-07-22T02:15:50;9.52;;;2.85;;
28802;SDS011;15949;55.656;37.422;2022-07-22T02:20:56;6.47;;;3.00;;
28802;SDS011;15949;55.656;37.422;2022-07-22T02:26:02;6.88;;;3.25;;
28802;SDS011;15949;55.656;37.422;2022-07-22T02:31:08;4.60;;;2.70;;
28802;SDS011;15949;55.656;37.422;2022-07-22T02:36:13;6.00;;;2.60;;
28802;SDS011;15949;55.656;37.422;2022-07-22T02:41:19;5.88;;;2.90;;
28802;SDS011;15949;55.656;37.422;2022-07-22T02:46:24;6.63;;;2.30;;
28802;SDS011;15949;55.656;37.422;2022-07-22T02:51:31;7.13;;;2.50;;
28802;SDS011;15949;55.656;37.422;2022-07-22T02:56:37;5.50;;;2.70;;
28802;SDS011;15949;55.656;37.422;2022-07-22T03:01:43;5.55;;;3.00;;
28802;SDS011;15949;55.656;37.422;2022-07-22T03:06:49;6.25;;;2.60;;
28802;SDS011;15949;55.656;37.422;2022-07-22T03:11:54;3.47;;;2.33;;
28802;SDS011;15949;55.656;37.422;2022-07-22T03:17:00;4.72;;;2.10;;
28802;SDS011;15949;55.656;37.422;2022-07-22T03:22:05;5.63;;;2.35;;
28802;SDS011;15949;55.656;37.422;2022-07-22T03:27:11;7.35;;;2.05;;
28802;SDS011;15949;55.656;37.422;2022-07-22T03:32:17;6.55;;;2.40;;
28802;SDS011;15949;55.656;37.422;2022-07-22T03:37:23;4.15;;;2.45;;
28802;SDS011;15949;55.656;37.422;2022-07-22T03:42:28;5.05;;;2.30;;
28802;SDS011;15949;55.656;37.422;2022-07-22T03:47:34;5.60;;;2.42;;
28802;SDS011;15949;55.656;37.422;2022-07-22T03:52:40;8.13;;;2.58;;
28802;SDS011;15949;55.656;37.422;2022-07-22T03:57:45;5.35;;;2.35;;
28802;SDS011;15949;55.656;37.422;2022-07-22T04:02:51;7.57;;;2.20;;
28802;SDS011;15949;55.656;37.422;2022-07-22T04:07:56;4.72;;;2.30;;
28802;SDS011;15949;55.656;37.422;2022-07-22T04:13:02;5.68;;;2.47;;
28802;SDS011;15949;55.656;37.422;2022-07-22T04:18:08;8.40;;;2.15;;
28802;SDS011;15949;55.656;37.422;2022-07-22T04:23:13;3.75;;;2.17;;
28802;SDS011;15949;55.656;37.422;2022-07-22T04:28:19;4.78;;;1.95;;
28802;SDS011;15949;55.656;37.422;2022-07-22T04:33:24;4.18;;;1.85;;
28802;SDS011;15949;55.656;37.422;2022-07-22T04:38:30;4.07;;;1.92;;
28802;SDS011;15949;55.656;37.422;2022-07-22T04:43:36;4.15;;;1.85;;
28802;SDS011;15949;55.656;37.422;2022-07-22T04:48:41;4.07;;;2.10;;
28802;SDS011;15949;55.656;37.422;2022-07-22T04:53:47;8.32;;;2.17;;
28802;SDS011;15949;55.656;37.422;2022-07-22T04:58:52;4.88;;;2.40;;
28802;SDS011;15949;55.656;37.422;2022-07-22T05:03:58;4.57;;;1.90;;
28802;SDS011;15949;55.656;37.422;2022-07-22T05:09:04;5.70;;;1.80;;
28802;SDS011;15949;55.656;37.422;2022-07-22T05:14:09;6.13;;;1.63;;
28802;SDS011;15949;55.656;37.422;2022-07-22T05:19:15;9.00;;;1.92;;
28802;SDS011;15949;55.656;37.422;2022-07-22T05:24:20;6.05;;;1.70;;
28802;SDS011;15949;55.656;37.422;2022-07-22T05:29:26;12.35;;;2.38;;
28802;SDS011;15949;55.656;37.422;2022-07-22T05:34:32;7.47;;;2.10;;
28802;SDS011;15949;55.656;37.422;2022-07-22T05:39:37;8.30;;;1.88;;
28802;SDS011;15949;55.656;37.422;2022-07-22T05:44:43;6.72;;;1.90;;
28802;SDS011;15949;55.656;37.422;2022-07-22T05:49:48;8.70;;;2.00;;
28802;SDS011;15949;55.656;37.422;2022-07-22T05:54:54;5.82;;;2.08;;
28802;SDS011;15949;55.656;37.422;2022-07-22T05:59:59;5.55;;;1.90;;
28802;SDS011;15949;55.656;37.422;2022-07-22T06:05:05;9.93;;;2.10;;
28802;SDS011;15949;55.656;37.422;2022-07-22T06:10:11;10.93;;;2.50;;
28802;SDS011;15949;55.656;37.422;2022-07-22T06:15:16;5.00;;;1.90;;
28802;SDS011;15949;55.656;37.422;2022-07-22T06:20:22;6.88;;;2.00;;
28802;SDS011;15949;55.656;37.422;2022-07-22T06:25:28;7.63;;;2.15;;
28802;SDS011;15949;55.656;37.422;2022-07-22T06:30:33;6.95;;;1.90;;
28802;SDS011;15949;55.656;37.422;2022-07-22T06:35:39;7.95;;;2.20;;
28802;SDS011;15949;55.656;37.422;2022-07-22T06:40:45;7.53;;;1.98;;
28802;SDS011;15949;55.656;37.422;2022-07-22T06:45:51;15.27;;;2.60;;
28802;SDS011;15949;55.656;37.422;2022-07-22T06:50:56;5.40;;;2.00;;
28802;SDS011;15949;55.656;37.422;2022-07-22T06:56:02;7.95;;;2.15;;
28802;SDS011;15949;55.656;37.422;2022-07-22T07:01:08;15.27;;;2.88;;
28802;SDS011;15949;55.656;37.422;2022-07-22T07:06:14;8.77;;;2.22;;
28802;SDS011;15949;55.656;37.422;2022-07-22T07:11:19;7.43;;;2.40;;
28802;SDS011;15949;55.656;37.422;2022-07-22T07:16:25;6.85;;;2.20;;
28802;SDS011;15949;55.656;37.422;2022-07-22T07:21:30;7.30;;;1.83;;
28802;SDS011;15949;55.656;37.422;2022-07-22T07:26:36;5.00;;;2.00;;
28802;SDS011;15949;55.656;37.422;2022-07-22T07:31:42;9.32;;;2.13;;
28802;SDS011;15949;55.656;37.422;2022-07-22T07:36:47;10.80;;;2.20;;
28802;SDS011;15949;55.656;37.422;2022-07-22T07:41:53;5.80;;;1.80;;
28802;SDS011;15949;55.656;37.422;2022-07-22T07:47:00;5.18;;;1.70;;
28802;SDS011;15949;55.656;37.422;2022-07-22T07:52:06;4.28;;;1.80;;
28802;SDS011;15949;55.656;37.422;2022-07-22T07:57:12;9.18;;;1.92;;
28802;SDS011;15949;55.656;37.422;2022-07-22T08:02:17;4.57;;;1.58;;
28802;SDS011;15949;55.656;37.422;2022-07-22T08:07:23;7.82;;;2.20;;
28802;SDS011;15949;55.656;37.422;2022-07-22T08:12:28;10.70;;;2.25;;
28802;SDS011;15949;55.656;37.422;2022-07-22T08:17:34;4.80;;;1.58;;
28802;SDS011;15949;55.656;37.422;2022-07-22T08:22:40;5.75;;;1.58;;
28802;SDS011;15949;55.656;37.422;2022-07-22T08:27:45;10.98;;;1.90;;
28802;SDS011;15949;55.656;37.422;2022-07-22T08:32:51;6.38;;;1.73;;
28802;SDS011;15949;55.656;37.422;2022-07-22T08:37:56;8.07;;;1.80;;
28802;SDS011;15949;55.656;37.422;2022-07-22T08:43:02;7.97;;;2.00;;
28802;SDS011;15949;55.656;37.422;2022-07-22T08:48:08;6.38;;;1.60;;
28802;SDS011;15949;55.656;37.422;2022-07-22T08:53:14;5.90;;;1.70;;
28802;SDS011;15949;55.656;37.422;2022-07-22T08:58:20;10.82;;;1.83;;
28802;SDS011;15949;55.656;37.422;2022-07-22T09:03:25;5.78;;;1.88;;
28802;SDS011;15949;55.656;37.422;2022-07-22T09:08:32;6.38;;;1.98;;
28802;SDS011;15949;55.656;37.422;2022-07-22T09:13:56;5.85;;;1.67;;
28802;SDS011;15949;55.656;37.422;2022-07-22T09:19:05;7.82;;;1.73;;
28802;SDS011;15949;55.656;37.422;2022-07-22T09:24:27;6.43;;;1.50;;
28802;SDS011;15949;55.656;37.422;2022-07-22T09:29:37;5.22;;;1.50;;
28802;SDS011;15949;55.656;37.422;2022-07-22T09:34:43;2.55;;;1.50;;
28802;SDS011;15949;55.656;37.422;2022-07-22T09:39:49;4.07;;;1.45;;
28802;SDS011;15949;55.656;37.422;2022-07-22T09:44:54;2.05;;;1.40;;
28802;SDS011;15949;55.656;37.422;2022-07-22T09:50:00;4.90;;;1.42;;
28802;SDS011;15949;55.656;37.422;2022-07-22T09:55:06;7.82;;;2.00;;
28802;SDS011;15949;55.656;37.422;2022-07-22T10:00:12;2.90;;;1.60;;
28802;SDS011;15949;55.656;37.422;2022-07-22T10:05:21;7.00;;;1.70;;
28802;SDS011;15949;55.656;37.422;2022-07-22T10:10:28;5.72;;;1.63;;
28802;SDS011;15949;55.656;37.422;2022-07-22T10:15:35;6.82;;;1.70;;
28802;SDS011;15949;55.656;37.422;2022-07-22T10:20:42;12.15;;;2.05;;
28802;SDS011;15949;55.656;37.422;2022-07-22T10:25:50;3.28;;;1.42;;
28802;SDS011;15949;55.656;37.422;2022-07-22T10:36:57;5.10;;;1.73;;
28802;SDS011;15949;55.656;37.422;2022-07-22T10:41:55;7.80;;;1.77;;
28802;SDS011;15949;55.656;37.422;2022-07-22T10:47:01;6.13;;;1.67;;
28802;SDS011;15949;55.656;37.422;2022-07-22T10:57:28;6.97;;;2.20;;
28802;SDS011;15949;55.656;37.422;2022-07-22T11:02:36;4.20;;;1.40;;
28802;SDS011;15949;55.656;37.422;2022-07-22T11:07:42;4.93;;;1.70;;
28802;SDS011;15949;55.656;37.422;2022-07-22T11:12:49;10.55;;;1.95;;
28802;SDS011;15949;55.656;37.422;2022-07-22T11:17:56;11.30;;;1.95;;
28802;SDS011;15949;55.656;37.422;2022-07-22T11:23:02;6.03;;;1.83;;
28802;SDS011;15949;55.656;37.422;2022-07-22T11:28:08;6.45;;;1.92;;
28802;SDS011;15949;55.656;37.422;2022-07-22T11:33:14;6.07;;;1.40;;
28802;SDS011;15949;55.656;37.422;2022-07-22T11:38:20;9.77;;;1.80;;
28802;SDS011;15949;55.656;37.422;2022-07-22T11:43:26;7.22;;;2.08;;
28802;SDS011;15949;55.656;37.422;2022-07-22T11:48:43;10.55;;;2.00;;
28802;SDS011;15949;55.656;37.422;2022-07-22T11:53:49;14.88;;;3.05;;
28802;SDS011;15949;55.656;37.422;2022-07-22T11:58:55;10.27;;;1.92;;
28802;SDS011;15949;55.656;37.422;2022-07-22T12:04:03;4.53;;;1.63;;
28802;SDS011;15949;55.656;37.422;2022-07-22T12:09:19;9.52;;;2.10;;
28802;SDS011;15949;55.656;37.422;2022-07-22T12:14:26;8.13;;;1.90;;
28802;SDS011;15949;55.656;37.422;2022-07-22T12:19:34;8.57;;;2.38;;
28802;SDS011;15949;55.656;37.422;2022-07-22T12:24:41;8.63;;;1.92;;
28802;SDS011;15949;55.656;37.422;2022-07-22T12:29:48;7.07;;;1.90;;
28802;SDS011;15949;55.656;37.422;2022-07-22T12:34:58;8.02;;;1.85;;
28802;SDS011;15949;55.656;37.422;2022-07-22T12:45:13;14.20;;;2.30;;
28802;SDS011;15949;55.656;37.422;2022-07-22T12:50:26;9.23;;;2.00;;
28802;SDS011;15949;55.656;37.422;2022-07-22T12:55:33;9.55;;;2.00;;
28802;SDS011;15949;55.656;37.422;2022-07-22T13:00:45;6.57;;;1.98;;
28802;SDS011;15949;55.656;37.422;2022-07-22T13:05:59;8.80;;;2.28;;
28802;SDS011;15949;55.656;37.422;2022-07-22T13:11:06;6.85;;;2.50;;
28802;SDS011;15949;55.656;37.422;2022-07-22T13:16:11;15.52;;;2.50;;
28802;SDS011;15949;55.656;37.422;2022-07-22T13:21:17;12.65;;;2.15;;
28802;SDS011;15949;55.656;37.422;2022-07-22T13:26:23;8.48;;;1.77;;
28802;SDS011;15949;55.656;37.422;2022-07-22T13:31:30;3.78;;;1.60;;
28802;SDS011;15949;55.656;37.422;2022-07-22T13:36:36;11.00;;;2.00;;
28802;SDS011;15949;55.656;37.422;2022-07-22T13:41:41;8.40;;;1.98;;
28802;SDS011;15949;55.656;37.422;2022-07-22T13:46:47;10.55;;;2.50;;
28802;SDS011;15949;55.656;37.422;2022-07-22T13:51:54;9.00;;;2.67;;
28802;SDS011;15949;55.656;37.422;2022-07-22T13:56:59;9.43;;;2.17;;
28802;SDS011;15949;55.656;37.422;2022-07-22T14:02:06;6.40;;;1.80;;
28802;SDS011;15949;55.656;37.422;2022-07-22T14:07:11;8.25;;;2.00;;
28802;SDS011;15949;55.656;37.422;2022-07-22T14:12:17;7.28;;;2.20;;
28802;SDS011;15949;55.656;37.422;2022-07-22T14:17:23;10.82;;;2.05;;
28802;SDS011;15949;55.656;37.422;2022-07-22T14:22:28;9.60;;;2.28;;
28802;SDS011;15949;55.656;37.422;2022-07-22T14:27:35;10.38;;;2.17;;
28802;SDS011;15949;55.656;37.422;2022-07-22T14:32:41;15.07;;;2.50;;
28802;SDS011;15949;55.656;37.422;2022-07-22T14:37:47;10.15;;;2.30;;
28802;SDS011;15949;55.656;37.422;2022-07-22T14:42:52;8.00;;;2.45;;
28802;SDS011;15949;55.656;37.422;2022-07-22T14:47:58;11.35;;;2.55;;
28802;SDS011;15949;55.656;37.422;2022-07-22T14:53:03;8.45;;;2.35;;
28802;SDS011;15949;55.656;37.422;2022-07-22T14:58:09;10.45;;;2.30;;
28802;SDS011;15949;55.656;37.422;2022-07-22T15:03:14;6.50;;;2.33;;
28802;SDS011;15949;55.656;37.422;2022-07-22T15:08:20;7.15;;;2.25;;
28802;SDS011;15949;55.656;37.422;2022-07-22T15:13:27;4.55;;;2.00;;
28802;SDS011;15949;55.656;37.422;2022-07-22T15:18:33;9.98;;;2.20;;
28802;SDS011;15949;55.656;37.422;2022-07-22T15:23:38;8.55;;;1.85;;
28802;SDS011;15949;55.656;37.422;2022-07-22T15:28:44;7.80;;;1.80;;
28802;SDS011;15949;55.656;37.422;2022-07-22T15:33:52;8.20;;;2.00;;
28802;SDS011;15949;55.656;37.422;2022-07-22T15:38:58;7.93;;;1.60;;
28802;SDS011;15949;55.656;37.422;2022-07-22T15:44:04;4.25;;;1.50;;
28802;SDS011;15949;55.656;37.422;2022-07-22T15:49:10;9.13;;;1.52;;
28802;SDS011;15949;55.656;37.422;2022-07-22T15:54:16;8.27;;;1.83;;
28802;SDS011;15949;55.656;37.422;2022-07-22T15:59:22;4.07;;;1.73;;
28802;SDS011;15949;55.656;37.422;2022-07-22T16:04:37;6.63;;;1.60;;
28802;SDS011;15949;55.656;37.422;2022-07-22T16:09:42;10.63;;;2.50;;
28802;SDS011;15949;55.656;37.422;2022-07-22T16:14:48;11.90;;;2.20;;
28802;SDS011;15949;55.656;37.422;2022-07-22T16:19:53;11.38;;;2.45;;
28802;SDS011;15949;55.656;37.422;2022-07-22T16:24:59;10.30;;;2.55;;
28802;SDS011;15949;55.656;37.422;2022-07-22T16:30:05;4.75;;;2.60;;
28802;SDS011;15949;55.656;37.422;2022-07-22T16:35:11;8.85;;;3.10;;
28802;SDS011;15949;55.656;37.422;2022-07-22T16:40:16;7.68;;;2.40;;
28802;SDS011;15949;55.656;37.422;2022-07-22T16:45:22;7.28;;;2.47;;
28802;SDS011;15949;55.656;37.422;2022-07-22T16:50:27;9.82;;;2.75;;
28802;SDS011;15949;55.656;37.422;2022-07-22T16:55:33;5.72;;;3.00;;
28802;SDS011;15949;55.656;37.422;2022-07-22T17:00:39;9.98;;;2.85;;
28802;SDS011;15949;55.656;37.422;2022-07-22T17:05:45;13.20;;;2.88;;
28802;SDS011;15949;55.656;37.422;2022-07-22T17:10:51;8.63;;;2.67;;
28802;SDS011;15949;55.656;37.422;2022-07-22T17:15:57;11.98;;;2.50;;
28802;SDS011;15949;55.656;37.422;2022-07-22T17:21:03;13.75;;;2.80;;
28802;SDS011;15949;55.656;37.422;2022-07-22T17:26:08;9.95;;;3.22;;
28802;SDS011;15949;55.656;37.422;2022-07-22T17:31:14;12.80;;;2.60;;
28802;SDS011;15949;55.656;37.422;2022-07-22T17:36:20;14.30;;;2.58;;
28802;SDS011;15949;55.656;37.422;2022-07-22T17:41:26;11.02;;;2.70;;
28802;SDS011;15949;55.656;37.422;2022-07-22T17:46:31;14.35;;;3.03;;
28802;SDS011;15949;55.656;37.422;2022-07-22T17:51:37;12.77;;;3.20;;
28802;SDS011;15949;55.656;37.422;2022-07-22T17:56:42;16.55;;;3.78;;
28802;SDS011;15949;55.656;37.422;2022-07-22T18:01:48;17.67;;;3.50;;
28802;SDS011;15949;55.656;37.422;2022-07-22T18:06:54;16.98;;;3.90;;
28802;SDS011;15949;55.656;37.422;2022-07-22T18:12:01;15.02;;;3.80;;
28802;SDS011;15949;55.656;37.422;2022-07-22T18:17:07;13.80;;;3.80;;
28802;SDS011;15949;55.656;37.422;2022-07-22T18:22:13;14.90;;;3.80;;
28802;SDS011;15949;55.656;37.422;2022-07-22T18:27:20;23.40;;;4.70;;
28802;SDS011;15949;55.656;37.422;2022-07-22T18:32:25;26.27;;;4.55;;
28802;SDS011;15949;55.656;37.422;2022-07-22T18:37:31;24.17;;;4.88;;
28802;SDS011;15949;55.656;37.422;2022-07-22T18:42:36;17.60;;;4.80;;
28802;SDS011;15949;55.656;37.422;2022-07-22T18:47:42;18.60;;;4.47;;
28802;SDS011;15949;55.656;37.422;2022-07-22T18:52:48;15.43;;;4.88;;
28802;SDS011;15949;55.656;37.422;2022-07-22T18:57:53;20.85;;;4.65;;
28802;SDS011;15949;55.656;37.422;2022-07-22T19:02:59;14.60;;;4.68;;
28802;SDS011;15949;55.656;37.422;2022-07-22T19:08:05;15.57;;;4.65;;
28802;SDS011;15949;55.656;37.422;2022-07-22T19:13:10;16.55;;;5.30;;
28802;SDS011;15949;55.656;37.422;2022-07-22T19:18:16;15.60;;;5.38;;
28802;SDS011;15949;55.656;37.422;2022-07-22T19:23:24;17.10;;;6.17;;
28802;SDS011;15949;55.656;37.422;2022-07-22T19:28:30;12.75;;;5.75;;
28802;SDS011;15949;55.656;37.422;2022-07-22T19:33:35;18.50;;;5.82;;
28802;SDS011;15949;55.656;37.422;2022-07-22T19:38:41;14.18;;;6.50;;
28802;SDS011;15949;55.656;37.422;2022-07-22T19:43:47;20.90;;;6.68;;
28802;SDS011;15949;55.656;37.422;2022-07-22T19:48:52;15.13;;;6.28;;
28802;SDS011;15949;55.656;37.422;2022-07-22T19:54:00;19.30;;;5.72;;
28802;SDS011;15949;55.656;37.422;2022-07-22T19:59:05;13.32;;;5.45;;
28802;SDS011;15949;55.656;37.422;2022-07-22T20:04:11;18.25;;;5.70;;
28802;SDS011;15949;55.656;37.422;2022-07-22T20:09:17;13.70;;;5.50;;
28802;SDS011;15949;55.656;37.422;2022-07-22T20:14:23;10.43;;;5.90;;
28802;SDS011;15949;55.656;37.422;2022-07-22T20:19:28;15.75;;;5.85;;
28802;SDS011;15949;55.656;37.422;2022-07-22T20:24:34;12.07;;;5.68;;
28802;SDS011;15949;55.656;37.422;2022-07-22T20:29:40;14.00;;;6.05;;
28802;SDS011;15949;55.656;37.422;2022-07-22T20:34:45;24.95;;;5.95;;
28802;SDS011;15949;55.656;37.422;2022-07-22T20:39:51;12.77;;;5.70;;
28802;SDS011;15949;55.656;37.422;2022-07-22T20:44:57;15.60;;;6.07;;
28802;SDS011;15949;55.656;37.422;2022-07-22T20:50:02;13.48;;;5.30;;
28802;SDS011;15949;55.656;37.422;2022-07-22T20:55:08;13.68;;;5.60;;
28802;SDS011;15949;55.656;37.422;2022-07-22T21:00:14;14.70;;;5.70;;
28802;SDS011;15949;55.656;37.422;2022-07-22T21:05:19;12.75;;;5.40;;
28802;SDS011;15949;55.656;37.422;2022-07-22T21:10:25;13.07;;;6.00;;
28802;SDS011;15949;55.656;37.422;2022-07-22T21:15:31;11.00;;;6.40;;
28802;SDS011;15949;55.656;37.422;2022-07-22T21:20:37;18.83;;;6.53;;
28802;SDS011;15949;55.656;37.422;2022-07-22T21:25:42;17.25;;;6.32;;
28802;SDS011;15949;55.656;37.422;2022-07-22T21:30:48;21.77;;;7.18;;
28802;SDS011;15949;55.656;37.422;2022-07-22T21:35:53;12.63;;;6.32;;
28802;SDS011;15949;55.656;37.422;2022-07-22T21:40:59;14.98;;;6.13;;
28802;SDS011;15949;55.656;37.422;2022-07-22T21:46:05;11.95;;;6.68;;
28802;SDS011;15949;55.656;37.422;2022-07-22T21:51:10;15.45;;;6.20;;
28802;SDS011;15949;55.656;37.422;2022-07-22T21:56:16;11.18;;;5.95;;
28802;SDS011;15949;55.656;37.422;2022-07-22T22:01:40;10.70;;;6.47;;
28802;SDS011;15949;55.656;37.422;2022-07-22T22:06:48;11.23;;;6.18;;
28802;SDS011;15949;55.656;37.422;2022-07-22T22:11:54;9.93;;;6.10;;
28802;SDS011;15949;55.656;37.422;2022-07-22T22:17:00;13.45;;;5.82;;
28802;SDS011;15949;55.656;37.422;2022-07-22T22:22:10;15.27;;;6.55;;
28802;SDS011;15949;55.656;37.422;2022-07-22T22:27:15;12.30;;;6.43;;
28802;SDS011;15949;55.656;37.422;2022-07-22T22:32:21;14.80;;;7.07;;
28802;SDS011;15949;55.656;37.422;2022-07-22T22:37:27;12.40;;;6.97;;
28802;SDS011;15949;55.656;37.422;2022-07-22T22:42:32;16.48;;;7.15;;
28802;SDS011;15949;55.656;37.422;2022-07-22T22:47:38;10.05;;;6.40;;
28802;SDS011;15949;55.656;37.422;2022-07-22T22:52:43;12.93;;;6.13;;
28802;SDS011;15949;55.656;37.422;2022-07-22T22:57:49;17.23;;;6.35;;
28802;SDS011;15949;55.656;37.422;2022-07-22T23:02:54;10.55;;;6.07;;
28802;SDS011;15949;55.656;37.422;2022-07-22T23:08:00;9.27;;;5.70;;
28802;SDS011;15949;55.656;37.422;2022-07-22T23:13:07;9.15;;;5.90;;
28802;SDS011;15949;55.656;37.422;2022-07-22T23:18:12;16.52;;;6.78;;
28802;SDS011;15949;55.656;37.422;2022-07-22T23:23:19;13.45;;;6.10;;
28802;SDS011;15949;55.656;37.422;2022-07-22T23:28:26;11.65;;;6.40;;
28802;SDS011;15949;55.656;37.422;2022-07-22T23:33:32;10.15;;;5.90;;
28802;SDS011;15949;55.656;37.422;2022-07-22T23:38:38;10.82;;;6.40;;
28802;SDS011;15949;55.656;37.422;2022-07-22T23:43:44;14.30;;;6.00;;
28802;SDS011;15949;55.656;37.422;2022-07-22T23:48:49;10.52;;;6.35;;
28802;SDS011;15949;55.656;37.422;2022-07-22T23:53:55;10.27;;;6.15;;
28802;SDS011;15949;55.656;37.422;2022-07-22T23:59:00;12.13;;;5.75;;
